createdAt,value
2019-02-22T00:00:33.388Z,1020.44
2019-02-22T00:01:33.360Z,1020.45
2019-02-22T00:02:33.388Z,1020.47
2019-02-22T00:03:33.347Z,1020.42
2019-02-22T00:04:33.329Z,1020.47
2019-02-22T00:05:33.326Z,1020.42
2019-02-22T00:06:33.399Z,1020.54
2019-02-22T00:07:33.304Z,1020.55
2019-02-22T00:08:33.289Z,1020.59
2019-02-22T00:09:33.282Z,1020.57
2019-02-22T00:10:33.269Z,1020.54
2019-02-22T00:11:33.398Z,1020.57
2019-02-22T00:12:33.246Z,1020.65
2019-02-22T00:13:33.255Z,1020.64
2019-02-22T00:14:33.249Z,1020.70
2019-02-22T00:15:33.218Z,1020.69
2019-02-22T00:16:33.213Z,1020.71
2019-02-22T00:17:33.405Z,1020.79
2019-02-22T00:18:33.187Z,1020.76
2019-02-22T00:19:33.171Z,1020.84
2019-02-22T00:20:33.161Z,1020.80
2019-02-22T00:21:33.443Z,1020.87
2019-02-22T00:22:33.146Z,1020.84
2019-02-22T00:23:33.121Z,1020.83
2019-02-22T00:24:33.396Z,1020.81
2019-02-22T00:25:33.103Z,1020.76
2019-02-22T00:26:33.395Z,1020.79
2019-02-22T00:27:33.398Z,1020.78
2019-02-22T00:28:33.076Z,1020.76
2019-02-22T00:29:33.058Z,1020.79
2019-02-22T00:30:33.045Z,1020.76
2019-02-22T00:31:33.061Z,1020.77
2019-02-22T00:32:33.399Z,1020.78
2019-02-22T00:33:33.025Z,1020.79
2019-02-22T00:35:43.028Z,1020.77
2019-02-22T00:36:43.041Z,1020.80
2019-02-22T00:37:43.468Z,1020.78
2019-02-22T00:38:42.952Z,1020.71
2019-02-22T00:39:42.962Z,1020.72
2019-02-22T00:40:42.951Z,1020.75
2019-02-22T00:41:42.933Z,1020.70
2019-02-22T00:42:42.937Z,1020.75
2019-02-22T00:43:42.912Z,1020.76
2019-02-22T00:44:42.896Z,1020.73
2019-02-22T00:45:42.896Z,1020.82
2019-02-22T00:46:42.886Z,1020.77
2019-02-22T00:47:42.967Z,1020.77
2019-02-22T00:48:42.842Z,1020.77
2019-02-22T00:49:42.832Z,1020.80
2019-02-22T00:50:42.819Z,1020.87
2019-02-22T00:51:42.809Z,1020.88
2019-02-22T00:52:42.996Z,1020.88
2019-02-22T00:53:42.811Z,1020.85
2019-02-22T00:54:42.796Z,1020.85
2019-02-22T00:55:42.778Z,1020.87
2019-02-22T00:56:42.781Z,1020.84
2019-02-22T00:57:42.973Z,1020.83
2019-02-22T00:58:42.977Z,1020.84
2019-02-22T00:59:42.733Z,1020.92
2019-02-22T01:00:42.719Z,1020.91
2019-02-22T01:01:42.701Z,1020.90
2019-02-22T01:02:42.691Z,1020.91
2019-02-22T01:03:42.967Z,1020.91
2019-02-22T01:04:42.688Z,1020.98
2019-02-22T01:05:42.662Z,1020.95
2019-02-22T01:06:42.652Z,1020.91
2019-02-22T01:07:42.642Z,1020.93
2019-02-22T01:08:42.631Z,1020.91
2019-02-22T01:09:42.968Z,1020.92
2019-02-22T01:10:42.626Z,1020.90
2019-02-22T01:11:42.604Z,1020.94
2019-02-22T01:12:42.588Z,1020.96
2019-02-22T01:13:42.578Z,1020.93
2019-02-22T01:14:42.975Z,1020.98
2019-02-22T01:15:42.564Z,1021.07
2019-02-22T01:16:42.543Z,1021.04
2019-02-22T01:17:42.538Z,1021.07
2019-02-22T01:18:42.998Z,1021.11
2019-02-22T01:19:42.531Z,1021.08
2019-02-22T01:20:51.561Z,1021.09
2019-02-22T01:21:43.496Z,1021.01
2019-02-22T01:22:42.484Z,1021.03
2019-02-22T01:23:42.976Z,1021.00
2019-02-22T01:24:42.461Z,1021.01
2019-02-22T01:25:42.460Z,1021.13
2019-02-22T01:26:42.451Z,1021.08
2019-02-22T01:27:42.432Z,1021.15
2019-02-22T01:28:42.499Z,1021.08
2019-02-22T01:29:42.415Z,1021.11
2019-02-22T01:30:42.405Z,1021.15
2019-02-22T01:31:42.398Z,1021.11
2019-02-22T01:32:42.398Z,1021.11
2019-02-22T01:33:42.477Z,1021.09
2019-02-22T01:34:42.360Z,1021.12
2019-02-22T01:35:42.378Z,1021.08
2019-02-22T01:36:42.343Z,1021.10
2019-02-22T01:37:42.320Z,1021.12
2019-02-22T01:38:42.310Z,1021.09
2019-02-22T01:39:42.300Z,1021.13
2019-02-22T01:40:44.079Z,1021.12
2019-02-22T01:41:42.361Z,1021.14
2019-02-22T01:42:42.278Z,1021.15
2019-02-22T01:43:42.262Z,1021.16
2019-02-22T01:44:42.246Z,1021.17
2019-02-22T01:45:42.239Z,1021.16
2019-02-22T01:46:42.497Z,1021.24
2019-02-22T01:47:42.235Z,1021.19
2019-02-22T01:48:42.220Z,1021.20
2019-02-22T01:49:42.200Z,1021.31
2019-02-22T01:50:42.194Z,1021.28
2019-02-22T01:51:42.478Z,1021.29
2019-02-22T01:52:42.159Z,1021.30
2019-02-22T01:53:42.149Z,1021.24
2019-02-22T01:54:42.149Z,1021.27
2019-02-22T01:55:42.130Z,1021.27
2019-02-22T01:56:42.133Z,1021.28
2019-02-22T01:57:42.491Z,1021.30
2019-02-22T01:58:48.704Z,1021.30
2019-02-22T01:59:43.092Z,1021.25
2019-02-22T02:00:42.075Z,1021.25
2019-02-22T02:01:42.064Z,1021.27
2019-02-22T02:02:42.057Z,1021.28
2019-02-22T02:03:42.063Z,1021.29
2019-02-22T02:04:42.032Z,1021.24
2019-02-22T02:05:42.037Z,1021.19
2019-02-22T02:06:42.017Z,1021.18
2019-02-22T02:07:42.004Z,1021.18
2019-02-22T02:08:42.029Z,1021.20
2019-02-22T02:09:41.985Z,1021.22
2019-02-22T02:10:41.969Z,1021.30
2019-02-22T02:11:41.973Z,1021.30
2019-02-22T02:12:41.949Z,1021.26
2019-02-22T02:13:41.985Z,1021.28
2019-02-22T02:14:41.930Z,1021.27
2019-02-22T02:15:41.917Z,1021.32
2019-02-22T02:16:41.982Z,1021.36
2019-02-22T02:17:41.914Z,1021.40
2019-02-22T02:18:41.884Z,1021.33
2019-02-22T02:19:41.870Z,1021.34
2019-02-22T02:20:41.889Z,1021.37
2019-02-22T02:21:42.012Z,1021.42
2019-02-22T02:22:42.005Z,1021.41
2019-02-22T02:23:41.837Z,1021.44
2019-02-22T02:24:41.822Z,1021.39
2019-02-22T02:25:41.819Z,1021.43
2019-02-22T02:26:41.797Z,1021.46
2019-02-22T02:27:41.980Z,1021.46
2019-02-22T02:28:41.990Z,1021.44
2019-02-22T02:29:42.030Z,1021.49
2019-02-22T02:30:41.770Z,1021.45
2019-02-22T02:31:41.766Z,1021.43
2019-02-22T02:32:41.746Z,1021.43
2019-02-22T02:33:41.734Z,1021.48
2019-02-22T02:34:41.725Z,1021.47
2019-02-22T02:35:41.770Z,1021.46
2019-02-22T02:36:41.701Z,1021.47
2019-02-22T02:37:41.684Z,1021.45
2019-02-22T02:38:41.679Z,1021.38
2019-02-22T02:39:41.668Z,1021.45
2019-02-22T02:40:41.991Z,1021.35
2019-02-22T02:41:41.646Z,1021.43
2019-02-22T02:42:41.628Z,1021.37
2019-02-22T02:43:41.621Z,1021.38
2019-02-22T02:44:41.618Z,1021.43
2019-02-22T02:45:41.992Z,1021.42
2019-02-22T02:46:41.997Z,1021.44
2019-02-22T02:47:41.582Z,1021.41
2019-02-22T02:48:41.563Z,1021.32
2019-02-22T02:49:41.564Z,1021.33
2019-02-22T02:50:41.543Z,1021.39
2019-02-22T02:51:41.550Z,1021.43
2019-02-22T02:52:42.001Z,1021.45
2019-02-22T02:53:41.521Z,1021.41
2019-02-22T02:54:41.497Z,1021.44
2019-02-22T02:55:41.490Z,1021.47
2019-02-22T02:56:41.476Z,1021.51
2019-02-22T02:57:41.468Z,1021.50
2019-02-22T02:58:41.515Z,1021.43
2019-02-22T02:59:41.453Z,1021.38
2019-02-22T03:00:41.448Z,1021.43
2019-02-22T03:01:41.441Z,1021.44
2019-02-22T03:02:41.427Z,1021.42
2019-02-22T03:03:41.505Z,1021.38
2019-02-22T03:04:41.402Z,1021.40
2019-02-22T03:05:41.389Z,1021.44
2019-02-22T03:06:41.371Z,1021.40
2019-02-22T03:07:41.366Z,1021.45
2019-02-22T03:08:41.504Z,1021.45
2019-02-22T03:09:41.500Z,1021.44
2019-02-22T03:10:41.339Z,1021.43
2019-02-22T03:11:41.333Z,1021.42
2019-02-22T03:12:41.313Z,1021.43
2019-02-22T03:13:41.509Z,1021.46
2019-02-22T03:14:41.294Z,1021.51
2019-02-22T03:15:41.282Z,1021.48
2019-02-22T03:16:41.265Z,1021.52
2019-02-22T03:17:41.256Z,1021.53
2019-02-22T03:18:41.515Z,1021.44
2019-02-22T03:19:41.238Z,1021.44
2019-02-22T03:20:41.234Z,1021.52
2019-02-22T03:21:41.213Z,1021.52
2019-02-22T03:22:41.209Z,1021.59
2019-02-22T03:23:41.510Z,1021.51
2019-02-22T03:24:41.193Z,1021.54
2019-02-22T03:25:41.172Z,1021.47
2019-02-22T03:26:41.170Z,1021.56
2019-02-22T03:27:41.155Z,1021.49
2019-02-22T03:28:41.168Z,1021.39
2019-02-22T03:29:41.141Z,1021.45
2019-02-22T03:30:41.506Z,1021.46
2019-02-22T03:31:41.131Z,1021.51
2019-02-22T03:32:41.140Z,1021.54
2019-02-22T03:33:41.089Z,1021.57
2019-02-22T03:34:41.082Z,1021.55
2019-02-22T03:35:41.088Z,1021.54
2019-02-22T03:36:41.499Z,1021.58
2019-02-22T03:37:41.080Z,1021.60
2019-02-22T03:38:41.034Z,1021.62
2019-02-22T03:39:41.024Z,1021.64
2019-02-22T03:40:41.016Z,1021.67
2019-02-22T03:41:41.001Z,1021.66
2019-02-22T03:42:41.495Z,1021.67
2019-02-22T03:43:40.992Z,1021.71
2019-02-22T03:44:40.967Z,1021.69
2019-02-22T03:45:40.960Z,1021.71
2019-02-22T03:46:40.983Z,1021.70
2019-02-22T03:47:40.938Z,1021.77
2019-02-22T03:48:40.927Z,1021.76
2019-02-22T03:49:41.494Z,1021.76
2019-02-22T03:50:40.942Z,1021.81
2019-02-22T03:51:40.916Z,1021.85
2019-02-22T03:52:40.893Z,1021.91
2019-02-22T03:53:40.881Z,1021.90
2019-02-22T03:54:40.877Z,1021.87
2019-02-22T03:55:40.869Z,1021.96
2019-02-22T03:56:40.841Z,1021.96
2019-02-22T03:57:40.832Z,1021.97
2019-02-22T03:58:40.823Z,1021.99
2019-02-22T03:59:40.820Z,1022.04
2019-02-22T04:00:40.818Z,1022.06
2019-02-22T04:01:40.789Z,1022.08
2019-02-22T04:02:40.786Z,1022.05
2019-02-22T04:03:40.764Z,1022.15
2019-02-22T04:04:40.759Z,1022.12
2019-02-22T04:05:41.015Z,1022.18
2019-02-22T04:06:40.747Z,1022.24
2019-02-22T04:07:40.738Z,1022.17
2019-02-22T04:08:41.008Z,1022.22
2019-02-22T04:09:40.701Z,1022.18
2019-02-22T04:10:40.709Z,1022.24
2019-02-22T04:11:45.825Z,1022.21
2019-02-22T04:12:41.679Z,1022.17
2019-02-22T04:13:40.662Z,1022.21
2019-02-22T04:14:40.654Z,1022.24
2019-02-22T04:15:41.012Z,1022.19
2019-02-22T04:16:40.629Z,1022.20
2019-02-22T04:17:40.621Z,1022.24
2019-02-22T04:18:41.011Z,1022.28
2019-02-22T04:19:41.016Z,1022.26
2019-02-22T04:20:40.647Z,1022.21
2019-02-22T04:21:40.576Z,1022.18
2019-02-22T04:22:40.567Z,1022.16
2019-02-22T04:23:40.570Z,1022.24
2019-02-22T04:24:41.005Z,1022.24
2019-02-22T04:25:41.002Z,1022.28
2019-02-22T04:26:40.526Z,1022.24
2019-02-22T04:27:40.510Z,1022.25
2019-02-22T04:28:40.507Z,1022.25
2019-02-22T04:29:40.489Z,1022.30
2019-02-22T04:30:40.496Z,1022.30
2019-02-22T04:31:40.473Z,1022.32
2019-02-22T04:32:40.460Z,1022.37
2019-02-22T04:33:40.447Z,1022.29
2019-02-22T04:34:40.441Z,1022.31
2019-02-22T04:35:40.464Z,1022.31
2019-02-22T04:36:40.424Z,1022.33
2019-02-22T04:37:40.404Z,1022.40
2019-02-22T04:38:40.533Z,1022.35
2019-02-22T04:39:40.390Z,1022.26
2019-02-22T04:40:40.383Z,1022.36
2019-02-22T04:41:40.377Z,1022.34
2019-02-22T04:42:40.359Z,1022.35
2019-02-22T04:43:40.351Z,1022.38
2019-02-22T04:44:40.500Z,1022.36
2019-02-22T04:45:40.364Z,1022.40
2019-02-22T04:46:40.321Z,1022.39
2019-02-22T04:47:40.304Z,1022.37
2019-02-22T04:48:40.504Z,1022.32
2019-02-22T04:49:40.278Z,1022.39
2019-02-22T04:50:40.268Z,1022.39
2019-02-22T04:51:40.255Z,1022.39
2019-02-22T04:52:40.511Z,1022.41
2019-02-22T04:53:40.238Z,1022.43
2019-02-22T04:54:40.224Z,1022.37
2019-02-22T04:55:40.212Z,1022.35
2019-02-22T04:56:40.217Z,1022.40
2019-02-22T04:57:40.201Z,1022.37
2019-02-22T04:58:40.191Z,1022.41
2019-02-22T04:59:40.176Z,1022.40
2019-02-22T05:00:40.510Z,1022.38
2019-02-22T05:01:40.147Z,1022.42
2019-02-22T05:02:40.139Z,1022.44
2019-02-22T05:03:40.520Z,1022.41
2019-02-22T05:04:40.134Z,1022.38
2019-02-22T05:05:40.103Z,1022.46
2019-02-22T05:06:40.094Z,1022.44
2019-02-22T05:07:40.088Z,1022.42
2019-02-22T05:08:40.098Z,1022.46
2019-02-22T05:09:40.068Z,1022.45
2019-02-22T05:10:40.051Z,1022.42
2019-02-22T05:11:40.037Z,1022.42
2019-02-22T05:12:40.037Z,1022.39
2019-02-22T05:13:40.017Z,1022.43
2019-02-22T05:14:40.524Z,1022.39
2019-02-22T05:15:40.011Z,1022.42
2019-02-22T05:16:39.999Z,1022.42
2019-02-22T05:17:39.990Z,1022.42
2019-02-22T05:18:39.976Z,1022.44
2019-02-22T05:19:40.029Z,1022.46
2019-02-22T05:20:40.032Z,1022.51
2019-02-22T05:21:39.931Z,1022.50
2019-02-22T05:22:39.927Z,1022.51
2019-02-22T05:23:39.918Z,1022.50
2019-02-22T05:24:40.012Z,1022.56
2019-02-22T05:25:39.896Z,1022.57
2019-02-22T05:26:39.892Z,1022.56
2019-02-22T05:27:39.874Z,1022.62
2019-02-22T05:28:39.859Z,1022.59
2019-02-22T05:29:39.843Z,1022.56
2019-02-22T05:30:40.027Z,1022.59
2019-02-22T05:31:39.824Z,1022.64
2019-02-22T05:32:39.823Z,1022.62
2019-02-22T05:33:39.803Z,1022.59
2019-02-22T05:34:40.029Z,1022.60
2019-02-22T05:35:39.791Z,1022.63
2019-02-22T05:36:39.787Z,1022.56
2019-02-22T05:37:39.759Z,1022.63
2019-02-22T05:38:39.777Z,1022.65
2019-02-22T05:39:39.736Z,1022.71
2019-02-22T05:40:39.728Z,1022.67
2019-02-22T05:41:39.715Z,1022.68
2019-02-22T05:42:40.027Z,1022.67
2019-02-22T05:43:39.702Z,1022.73
2019-02-22T05:44:39.708Z,1022.73
2019-02-22T05:45:39.707Z,1022.72
2019-02-22T05:46:39.662Z,1022.71
2019-02-22T05:47:39.653Z,1022.79
2019-02-22T05:48:39.642Z,1022.84
2019-02-22T05:49:39.643Z,1022.75
2019-02-22T05:50:40.026Z,1022.76
2019-02-22T05:51:39.618Z,1022.80
2019-02-22T05:52:39.603Z,1022.77
2019-02-22T05:53:40.045Z,1022.83
2019-02-22T05:54:39.588Z,1022.89
2019-02-22T05:55:40.522Z,1022.89
2019-02-22T05:56:40.511Z,1022.93
2019-02-22T05:57:39.554Z,1022.95
2019-02-22T05:58:40.034Z,1022.97
2019-02-22T05:59:39.521Z,1023.06
2019-02-22T06:00:39.529Z,1023.01
2019-02-22T06:01:39.787Z,1023.06
2019-02-22T06:02:39.502Z,1023.04
2019-02-22T06:03:39.536Z,1023.05
2019-02-22T06:04:39.470Z,1022.99
2019-02-22T06:05:39.462Z,1023.01
2019-02-22T06:06:40.001Z,1022.99
2019-02-22T06:07:39.615Z,1022.99
2019-02-22T06:08:39.447Z,1023.05
2019-02-22T06:09:39.544Z,1023.04
2019-02-22T06:10:39.412Z,1023.04
2019-02-22T06:11:39.402Z,1023.02
2019-02-22T06:12:39.403Z,1023.07
2019-02-22T06:13:39.373Z,1023.09
2019-02-22T06:14:39.371Z,1023.05
2019-02-22T06:15:39.350Z,1023.08
2019-02-22T06:16:39.344Z,1023.11
2019-02-22T06:17:39.339Z,1023.13
2019-02-22T06:18:39.341Z,1023.16
2019-02-22T06:19:40.027Z,1023.12
2019-02-22T06:20:39.302Z,1023.19
2019-02-22T06:21:39.524Z,1023.21
2019-02-22T06:22:39.282Z,1023.22
2019-02-22T06:23:39.304Z,1023.21
2019-02-22T06:24:39.302Z,1023.24
2019-02-22T06:25:39.533Z,1023.23
2019-02-22T06:26:39.233Z,1023.25
2019-02-22T06:27:39.234Z,1023.20
2019-02-22T06:28:39.217Z,1023.18
2019-02-22T06:29:39.201Z,1023.19
2019-02-22T06:30:39.561Z,1023.29
2019-02-22T06:31:39.197Z,1023.30
2019-02-22T06:32:42.081Z,1023.28
2019-02-22T06:33:39.178Z,1023.23
2019-02-22T06:34:39.159Z,1023.29
2019-02-22T06:35:39.150Z,1023.25
2019-02-22T06:36:39.555Z,1023.27
2019-02-22T06:37:39.552Z,1023.33
2019-02-22T06:38:39.117Z,1023.29
2019-02-22T06:39:39.111Z,1023.38
2019-02-22T06:40:39.096Z,1023.27
2019-02-22T06:41:39.544Z,1023.32
2019-02-22T06:42:45.845Z,1023.30
2019-02-22T06:43:40.063Z,1023.36
2019-02-22T06:44:39.039Z,1023.36
2019-02-22T06:45:39.042Z,1023.33
2019-02-22T06:46:39.034Z,1023.33
2019-02-22T06:47:39.013Z,1023.40
2019-02-22T06:48:39.015Z,1023.42
2019-02-22T06:49:38.981Z,1023.43
2019-02-22T06:50:38.973Z,1023.44
2019-02-22T06:51:38.965Z,1023.45
2019-02-22T06:52:39.047Z,1023.50
2019-02-22T06:53:38.960Z,1023.45
2019-02-22T06:54:39.050Z,1023.47
2019-02-22T06:55:38.921Z,1023.47
2019-02-22T06:56:38.909Z,1023.45
2019-02-22T06:57:38.895Z,1023.60
2019-02-22T06:58:38.911Z,1023.60
2019-02-22T06:59:39.037Z,1023.56
2019-02-22T07:00:38.878Z,1023.58
2019-02-22T07:01:38.874Z,1023.60
2019-02-22T07:02:38.859Z,1023.62
2019-02-22T07:03:38.848Z,1023.68
2019-02-22T07:04:39.070Z,1023.69
2019-02-22T07:05:38.837Z,1023.67
2019-02-22T07:06:38.827Z,1023.64
2019-02-22T07:07:39.031Z,1023.67
2019-02-22T07:08:38.787Z,1023.62
2019-02-22T07:09:38.865Z,1023.71
2019-02-22T07:10:38.776Z,1023.62
2019-02-22T07:11:38.758Z,1023.63
2019-02-22T07:12:38.754Z,1023.72
2019-02-22T07:13:39.546Z,1023.74
2019-02-22T07:14:39.539Z,1023.74
2019-02-22T07:15:42.022Z,1023.72
2019-02-22T07:16:39.701Z,1023.74
2019-02-22T07:17:38.784Z,1023.77
2019-02-22T07:18:38.800Z,1023.79
2019-02-22T07:19:39.518Z,1023.75
2019-02-22T07:20:39.544Z,1023.74
2019-02-22T07:21:51.838Z,1023.77
2019-02-22T07:22:39.639Z,1023.75
2019-02-22T07:23:39.523Z,1023.79
2019-02-22T07:24:39.527Z,1023.79
2019-02-22T07:25:38.622Z,1023.83
2019-02-22T07:26:39.568Z,1023.81
2019-02-22T07:27:39.534Z,1023.78
2019-02-22T07:28:38.576Z,1023.84
2019-02-22T07:29:39.538Z,1023.83
2019-02-22T07:30:39.528Z,1023.84
2019-02-22T07:31:38.556Z,1023.86
2019-02-22T07:32:38.544Z,1023.89
2019-02-22T07:33:38.522Z,1023.92
2019-02-22T07:34:39.034Z,1023.92
2019-02-22T07:35:39.045Z,1023.97
2019-02-22T07:36:39.023Z,1023.93
2019-02-22T07:37:39.030Z,1023.97
2019-02-22T07:38:38.472Z,1023.98
2019-02-22T07:39:39.053Z,1024.03
2019-02-22T07:40:39.030Z,1024.01
2019-02-22T07:41:39.045Z,1023.98
2019-02-22T07:42:39.077Z,1024.04
2019-02-22T07:43:39.025Z,1024.00
2019-02-22T07:44:38.432Z,1023.98
2019-02-22T07:45:39.037Z,1024.03
2019-02-22T07:46:39.030Z,1024.04
2019-02-22T07:47:39.049Z,1024.01
2019-02-22T07:48:39.035Z,1024.10
2019-02-22T07:49:38.346Z,1024.09
2019-02-22T07:50:39.043Z,1024.03
2019-02-22T07:51:39.042Z,1024.15
2019-02-22T07:52:38.735Z,1024.16
2019-02-22T07:53:39.028Z,1024.16
2019-02-22T07:54:38.323Z,1024.15
2019-02-22T07:55:39.024Z,1024.16
2019-02-22T07:56:39.037Z,1024.22
2019-02-22T07:57:40.063Z,1024.22
2019-02-22T07:58:38.597Z,1024.29
2019-02-22T07:59:39.037Z,1024.27
2019-02-22T08:00:39.038Z,1024.30
2019-02-22T08:01:46.835Z,1024.33
2019-02-22T08:02:40.073Z,1024.34
2019-02-22T08:03:39.031Z,1024.38
2019-02-22T08:04:39.075Z,1024.33
2019-02-22T08:05:38.176Z,1024.32
2019-02-22T08:06:39.027Z,1024.42
2019-02-22T08:07:39.028Z,1024.38
2019-02-22T08:08:39.087Z,1024.41
2019-02-22T08:09:39.048Z,1024.47
2019-02-22T08:10:39.094Z,1024.48
2019-02-22T08:11:39.041Z,1024.51
2019-02-22T08:12:40.015Z,1024.51
2019-02-22T08:13:39.047Z,1024.57
2019-02-22T08:14:39.067Z,1024.57
2019-02-22T08:15:38.071Z,1024.64
2019-02-22T08:16:39.034Z,1024.65
2019-02-22T08:17:39.037Z,1024.64
2019-02-22T08:18:39.035Z,1024.69
2019-02-22T08:19:38.100Z,1024.68
2019-02-22T08:20:38.017Z,1024.70
2019-02-22T08:21:38.057Z,1024.72
2019-02-22T08:22:38.532Z,1024.76
2019-02-22T08:23:38.047Z,1024.75
2019-02-22T08:24:38.553Z,1024.76
2019-02-22T08:25:38.587Z,1024.75
2019-02-22T08:26:38.538Z,1024.76
2019-02-22T08:27:40.009Z,1024.79
2019-02-22T08:28:38.542Z,1024.81
2019-02-22T08:29:38.537Z,1024.80
2019-02-22T08:30:38.591Z,1024.84
2019-02-22T08:31:38.547Z,1024.78
2019-02-22T08:32:38.591Z,1024.86
2019-02-22T08:33:38.553Z,1024.85
2019-02-22T08:34:38.567Z,1024.86
2019-02-22T08:35:38.688Z,1024.88
2019-02-22T08:36:37.876Z,1024.89
2019-02-22T08:37:39.573Z,1024.91
2019-02-22T08:38:38.555Z,1024.98
2019-02-22T08:39:38.547Z,1024.97
2019-02-22T08:40:38.548Z,1024.99
2019-02-22T08:41:37.827Z,1025.08
2019-02-22T08:42:38.585Z,1025.01
2019-02-22T08:43:38.550Z,1025.05
2019-02-22T08:44:38.855Z,1025.00
2019-02-22T08:45:38.539Z,1025.05
2019-02-22T08:46:38.415Z,1025.15
2019-02-22T08:47:38.057Z,1025.16
2019-02-22T08:48:38.117Z,1025.23
2019-02-22T08:49:38.578Z,1025.21
2019-02-22T08:50:38.544Z,1025.14
2019-02-22T08:51:38.560Z,1025.17
2019-02-22T08:52:38.079Z,1025.21
2019-02-22T08:53:38.567Z,1025.23
2019-02-22T08:54:46.509Z,1025.22
2019-02-22T08:55:38.660Z,1025.26
2019-02-22T08:56:39.384Z,1025.24
2019-02-22T08:57:37.668Z,1025.34
2019-02-22T08:58:38.545Z,1025.24
2019-02-22T08:59:40.740Z,1025.24
2019-02-22T09:00:38.540Z,1025.35
2019-02-22T09:01:38.550Z,1025.28
2019-02-22T09:02:37.596Z,1025.31
2019-02-22T09:03:49.490Z,1025.33
2019-02-22T09:04:38.554Z,1025.31
2019-02-22T09:05:38.112Z,1025.33
2019-02-22T09:06:38.039Z,1025.38
2019-02-22T09:07:37.564Z,1025.35
2019-02-22T09:08:58.570Z,1025.39
2019-02-22T09:09:37.517Z,1025.43
2019-02-22T09:10:38.043Z,1025.45
2019-02-22T09:11:38.041Z,1025.38
2019-02-22T09:12:38.052Z,1025.33
2019-02-22T09:13:43.597Z,1025.37
2019-02-22T09:14:39.052Z,1025.39
2019-02-22T09:15:38.057Z,1025.39
2019-02-22T09:16:38.073Z,1025.35
2019-02-22T09:17:38.055Z,1025.36
2019-02-22T09:18:37.577Z,1025.40
2019-02-22T09:19:38.055Z,1025.38
2019-02-22T09:20:38.074Z,1025.36
2019-02-22T09:21:37.556Z,1025.44
2019-02-22T09:22:38.084Z,1025.40
2019-02-22T09:23:37.359Z,1025.46
2019-02-22T09:24:38.060Z,1025.47
2019-02-22T09:25:37.581Z,1025.51
2019-02-22T09:26:38.068Z,1025.51
2019-02-22T09:27:38.056Z,1025.50
2019-02-22T09:28:37.292Z,1025.51
2019-02-22T09:29:38.054Z,1025.58
2019-02-22T09:30:38.080Z,1025.57
2019-02-22T09:31:38.047Z,1025.53
2019-02-22T09:32:38.046Z,1025.53
2019-02-22T09:33:37.254Z,1025.52
2019-02-22T09:34:37.597Z,1025.51
2019-02-22T09:35:42.711Z,1025.50
2019-02-22T09:36:37.220Z,1025.46
2019-02-22T09:37:37.573Z,1025.51
2019-02-22T09:38:38.059Z,1025.52
2019-02-22T09:39:37.176Z,1025.55
2019-02-22T09:40:38.058Z,1025.57
2019-02-22T09:41:38.047Z,1025.59
2019-02-22T09:42:38.080Z,1025.59
2019-02-22T09:43:37.586Z,1025.57
2019-02-22T09:44:37.136Z,1025.57
2019-02-22T09:45:38.066Z,1025.61
2019-02-22T09:46:37.584Z,1025.62
2019-02-22T09:47:38.049Z,1025.65
2019-02-22T09:48:38.061Z,1025.65
2019-02-22T09:49:37.082Z,1025.67
2019-02-22T09:50:38.062Z,1025.65
2019-02-22T09:51:37.079Z,1025.67
2019-02-22T09:52:37.577Z,1025.66
2019-02-22T09:53:37.588Z,1025.67
2019-02-22T09:54:37.018Z,1025.64
2019-02-22T09:55:37.653Z,1025.65
2019-02-22T09:56:51.175Z,1025.69
2019-02-22T09:57:37.622Z,1025.74
2019-02-22T09:58:37.565Z,1025.72
2019-02-22T09:59:37.559Z,1025.71
2019-02-22T10:00:37.567Z,1025.70
2019-02-22T10:01:37.558Z,1025.64
2019-02-22T10:02:37.568Z,1025.70
2019-02-22T10:03:37.110Z,1025.67
2019-02-22T10:04:37.653Z,1025.64
2019-02-22T10:05:37.563Z,1025.62
2019-02-22T10:06:37.584Z,1025.63
2019-02-22T10:07:37.588Z,1025.65
2019-02-22T10:08:37.646Z,1025.69
2019-02-22T10:09:37.569Z,1025.73
2019-02-22T10:10:36.852Z,1025.71
2019-02-22T10:11:37.566Z,1025.70
2019-02-22T10:12:37.933Z,1025.74
2019-02-22T10:13:37.573Z,1025.67
2019-02-22T10:14:38.052Z,1025.70
2019-02-22T10:15:36.781Z,1025.78
2019-02-22T10:16:37.552Z,1025.78
2019-02-22T10:17:37.571Z,1025.79
2019-02-22T10:18:58.100Z,1025.78
2019-02-22T10:19:36.755Z,1025.79
2019-02-22T10:20:36.727Z,1025.75
2019-02-22T10:21:37.564Z,1025.75
2019-02-22T10:22:37.102Z,1025.83
2019-02-22T10:23:37.586Z,1025.86
2019-02-22T10:24:37.605Z,1025.90
2019-02-22T10:25:38.645Z,1025.88
2019-02-22T10:26:36.697Z,1025.90
2019-02-22T10:27:37.586Z,1025.91
2019-02-22T10:28:37.564Z,1025.95
2019-02-22T10:29:37.584Z,1025.93
2019-02-22T10:30:37.577Z,1025.91
2019-02-22T10:31:36.613Z,1025.91
2019-02-22T10:32:37.085Z,1025.92
2019-02-22T10:33:37.569Z,1025.89
2019-02-22T10:34:37.628Z,1025.89
2019-02-22T10:35:37.619Z,1025.89
2019-02-22T10:36:44.703Z,1025.91
2019-02-22T10:37:37.549Z,1025.93
2019-02-22T10:38:37.062Z,1025.96
2019-02-22T10:39:57.603Z,1025.95
2019-02-22T10:40:38.632Z,1025.96
2019-02-22T10:41:36.547Z,1025.94
2019-02-22T10:42:37.073Z,1025.98
2019-02-22T10:43:37.073Z,1025.98
2019-02-22T10:44:37.093Z,1025.99
2019-02-22T10:45:37.141Z,1025.98
2019-02-22T10:46:36.611Z,1025.96
2019-02-22T10:47:37.074Z,1026.00
2019-02-22T10:48:37.095Z,1025.97
2019-02-22T10:49:37.063Z,1025.95
2019-02-22T10:50:37.076Z,1025.97
2019-02-22T10:51:37.083Z,1025.96
2019-02-22T10:52:37.062Z,1025.92
2019-02-22T10:53:37.065Z,1025.88
2019-02-22T10:54:37.089Z,1025.87
2019-02-22T10:55:37.077Z,1025.91
2019-02-22T10:56:39.150Z,1025.91
2019-02-22T10:57:37.121Z,1025.95
2019-02-22T10:58:37.084Z,1025.97
2019-02-22T10:59:37.118Z,1025.98
2019-02-22T11:00:37.076Z,1025.96
2019-02-22T11:01:37.120Z,1025.97
2019-02-22T11:02:36.590Z,1025.95
2019-02-22T11:03:37.228Z,1025.96
2019-02-22T11:04:37.076Z,1025.98
2019-02-22T11:05:37.089Z,1026.04
2019-02-22T11:06:37.096Z,1026.04
2019-02-22T11:07:37.356Z,1026.00
2019-02-22T11:08:37.067Z,1026.01
2019-02-22T11:09:37.070Z,1026.00
2019-02-22T11:10:37.369Z,1026.01
2019-02-22T11:11:37.238Z,1026.01
2019-02-22T11:12:36.595Z,1026.02
2019-02-22T11:13:37.067Z,1025.97
2019-02-22T11:14:37.071Z,1026.02
2019-02-22T11:15:37.067Z,1025.92
2019-02-22T11:16:37.091Z,1026.00
2019-02-22T11:17:36.112Z,1026.00
2019-02-22T11:18:39.290Z,1025.91
2019-02-22T11:19:37.103Z,1025.93
2019-02-22T11:20:36.582Z,1025.95
2019-02-22T11:21:36.623Z,1025.98
2019-02-22T11:22:36.580Z,1025.94
2019-02-22T11:23:36.571Z,1025.98
2019-02-22T11:24:36.649Z,1025.94
2019-02-22T11:25:36.586Z,1025.94
2019-02-22T11:26:36.577Z,1025.93
2019-02-22T11:27:36.577Z,1025.96
2019-02-22T11:28:39.556Z,1025.95
2019-02-22T11:29:40.390Z,1025.94
2019-02-22T11:30:36.575Z,1025.92
2019-02-22T11:31:36.601Z,1025.93
2019-02-22T11:32:36.132Z,1025.95
2019-02-22T11:33:36.096Z,1025.96
2019-02-22T11:34:36.110Z,1025.90
2019-02-22T11:35:36.597Z,1025.89
2019-02-22T11:36:35.907Z,1025.86
2019-02-22T11:37:36.573Z,1025.86
2019-02-22T11:38:35.933Z,1025.92
2019-02-22T11:39:36.589Z,1025.87
2019-02-22T11:40:36.579Z,1025.89
2019-02-22T11:41:36.603Z,1025.89
2019-02-22T11:42:36.576Z,1025.94
2019-02-22T11:43:35.842Z,1025.93
2019-02-22T11:44:40.219Z,1025.92
2019-02-22T11:45:36.582Z,1025.96
2019-02-22T11:46:36.585Z,1026.02
2019-02-22T11:47:36.614Z,1025.95
2019-02-22T11:48:35.842Z,1026.01
2019-02-22T11:49:36.576Z,1026.03
2019-02-22T11:50:37.052Z,1025.96
2019-02-22T11:51:36.579Z,1025.98
2019-02-22T11:52:36.582Z,1026.01
2019-02-22T11:53:37.552Z,1026.02
2019-02-22T11:54:35.718Z,1026.05
2019-02-22T11:55:36.585Z,1026.00
2019-02-22T11:56:36.583Z,1026.03
2019-02-22T11:57:36.576Z,1026.01
2019-02-22T11:58:36.622Z,1026.05
2019-02-22T11:59:37.093Z,1026.08
2019-02-22T12:00:36.593Z,1026.00
2019-02-22T12:01:36.593Z,1026.03
2019-02-22T12:02:35.658Z,1026.04
2019-02-22T12:03:35.621Z,1026.05
2019-02-22T12:04:35.603Z,1026.08
2019-02-22T12:05:35.587Z,1026.01
2019-02-22T12:06:35.616Z,1026.04